Terminal Aerodrome Forecast
Issued by NWS Louisville, KY

Home | Current Version | Previous Version | Text Only | Print | Product List | Glossary On
Versions: 1 2 3 4 5 6 7 8 9 10 11 12 13 14 15 16 17 18 19
145
FTUS43 KLMK 210817 AAA
TAFBWG
TAF AMD
KBWG 210817Z 2108/2206 VRB03KT 4SM BR SCT007 BKN010
      TEMPO 2108/2110 2SM BR BKN007
     FM211000 VRB04KT 2SM BR BKN005
     FM211600 31007KT P6SM BKN011
     FM211900 33008KT P6SM BKN022
     FM212300 VRB05KT P6SM SCT030=

USA.gov is the U.S. government's official web portal to all federal, state and local government web resources and services.